Terminal Aerodrome Forecast
Issued by NWS Newport/Morehead City, NC

Home | Current Version | Previous Version | Graphics & Text | Print | Product List | Glossary On
Versions: 1 2 3 4 5 6 7 8 9 10 11 12 13 14 15 16 17 18
424
FTUS42 KMHX 162327
TAFEWN
TAF
KEWN 162327Z 1700/1724 VRB03KT P6SM BKN020
     FM170400 VRB03KT P6SM SCT026 BKN070
      TEMPO 1710/1714 4SM BR BKN020
     FM171400 00000KT P6SM BKN015
     FM172200 21006KT P6SM BKN110=

USA.gov is the U.S. government's official web portal to all federal, state and local government web resources and services.